createdAt,value
2022-08-05T00:00:06.786Z,18.90
2022-08-05T00:02:53.504Z,18.90
2022-08-05T00:06:06.585Z,18.80
2022-08-05T00:08:48.361Z,18.80
2022-08-05T00:11:49.457Z,18.80
2022-08-05T00:14:42.355Z,18.80
2022-08-05T00:17:28.691Z,18.80
2022-08-05T00:20:15.534Z,18.70
2022-08-05T00:23:13.377Z,18.70
2022-08-05T00:26:00.102Z,18.60
2022-08-05T00:28:49.390Z,18.50
2022-08-05T00:31:54.085Z,18.60
2022-08-05T00:35:05.391Z,18.50
2022-08-05T00:37:54.785Z,18.40
2022-08-05T00:40:56.415Z,18.40
2022-08-05T00:43:49.688Z,18.30
2022-08-05T00:46:36.865Z,18.30
2022-08-05T00:49:32.626Z,18.20
2022-08-05T00:52:31.180Z,18.20
2022-08-05T00:55:17.337Z,18.20
2022-08-05T00:58:08.235Z,18.10
2022-08-05T01:01:01.564Z,18.10
2022-08-05T01:03:54.159Z,18.10
2022-08-05T01:06:46.578Z,18.10
2022-08-05T01:09:35.129Z,18.10
2022-08-05T01:12:30.229Z,18.00
2022-08-05T01:15:35.691Z,18.00
2022-08-05T01:18:27.483Z,18.00
2022-08-05T01:21:51.507Z,17.90
2022-08-05T01:24:47.674Z,17.90
2022-08-05T01:28:05.920Z,17.90
2022-08-05T01:31:09.145Z,17.80
2022-08-05T01:34:05.835Z,17.80
2022-08-05T01:37:04.765Z,17.70
2022-08-05T01:39:59.432Z,17.70
2022-08-05T01:42:48.819Z,17.60
2022-08-05T01:45:43.068Z,17.60
2022-08-05T01:48:33.201Z,17.60
2022-08-05T01:51:21.868Z,17.50
2022-08-05T01:54:10.844Z,17.50
2022-08-05T01:58:11.161Z,17.40
2022-08-05T02:00:12.119Z,17.40
2022-08-05T02:03:24.519Z,17.40
2022-08-05T02:06:33.922Z,17.40
2022-08-05T02:09:23.432Z,17.30
2022-08-05T02:12:27.614Z,17.30
2022-08-05T02:15:22.120Z,17.30
2022-08-05T02:18:32.282Z,17.30
2022-08-05T02:21:20.264Z,17.30
2022-08-05T02:24:11.037Z,17.30
2022-08-05T02:27:01.331Z,17.30
2022-08-05T02:30:00.872Z,17.30
2022-08-05T02:32:51.403Z,17.20
2022-08-05T02:35:44.901Z,17.20
2022-08-05T02:38:53.601Z,17.10
2022-08-05T02:41:58.076Z,17.10
2022-08-05T02:44:48.537Z,17.10
2022-08-05T02:48:07.304Z,17.00
2022-08-05T02:50:50.428Z,17.00
2022-08-05T02:53:40.411Z,17.00
2022-08-05T02:56:27.533Z,16.90
2022-08-05T02:59:20.603Z,16.90
2022-08-05T03:02:15.470Z,16.90
2022-08-05T03:05:04.350Z,16.90
2022-08-05T03:08:06.682Z,16.90
2022-08-05T03:11:53.642Z,16.80
2022-08-05T03:14:02.802Z,16.80
2022-08-05T03:16:49.628Z,16.80
2022-08-05T03:19:39.505Z,16.80
2022-08-05T03:22:32.319Z,16.80
2022-08-05T03:26:03.638Z,16.80
2022-08-05T03:28:28.033Z,16.80
2022-08-05T03:31:25.888Z,16.70
2022-08-05T03:34:20.932Z,16.70
2022-08-05T03:37:10.477Z,16.70
2022-08-05T03:39:59.176Z,16.60
2022-08-05T03:42:52.129Z,16.60
2022-08-05T03:45:58.037Z,16.50
2022-08-05T03:48:45.494Z,16.50
2022-08-05T03:52:38.511Z,16.40
2022-08-05T03:55:52.989Z,16.40
2022-08-05T03:58:01.442Z,16.40
2022-08-05T04:00:51.472Z,16.40
2022-08-05T04:03:40.211Z,16.40
2022-08-05T04:06:51.381Z,16.40
2022-08-05T04:09:38.260Z,16.40
2022-08-05T04:15:24.909Z,16.30
2022-08-05T04:18:22.457Z,16.30
2022-08-05T04:21:11.664Z,16.30
2022-08-05T04:24:06.413Z,16.30
2022-08-05T04:26:55.618Z,16.30
2022-08-05T04:29:44.240Z,16.30
2022-08-05T04:32:33.432Z,16.20
2022-08-05T04:35:21.962Z,16.20
2022-08-05T04:38:09.825Z,16.10
2022-08-05T04:41:03.535Z,16.10
2022-08-05T04:43:52.791Z,16.00
2022-08-05T04:46:39.367Z,15.90
2022-08-05T04:49:39.196Z,15.90
2022-08-05T04:52:34.299Z,15.90
2022-08-05T04:55:21.076Z,15.80
2022-08-05T04:58:26.871Z,15.70
2022-08-05T05:01:13.688Z,15.70
2022-08-05T05:04:00.106Z,15.70
2022-08-05T05:06:52.031Z,15.70
2022-08-05T05:09:45.225Z,15.60
2022-08-05T05:12:32.096Z,15.60
2022-08-05T05:15:57.787Z,15.60
2022-08-05T05:18:31.170Z,15.60
2022-08-05T05:21:20.218Z,15.50
2022-08-05T05:24:08.903Z,15.50
2022-08-05T05:26:55.655Z,15.50
2022-08-05T05:30:04.359Z,15.50
2022-08-05T05:32:49.346Z,15.50
2022-08-05T05:35:37.986Z,15.50
2022-08-05T05:38:28.469Z,15.40
2022-08-05T05:41:16.396Z,15.40
2022-08-05T05:44:04.779Z,15.40
2022-08-05T05:47:21.405Z,15.40
2022-08-05T05:50:09.967Z,15.50
2022-08-05T05:53:02.670Z,15.50
2022-08-05T05:56:10.300Z,15.50
2022-08-05T05:59:03.284Z,15.60
2022-08-05T06:01:57.157Z,15.50
2022-08-05T06:04:44.442Z,15.60
2022-08-05T06:07:41.773Z,15.60
2022-08-05T06:10:29.236Z,15.60
2022-08-05T06:13:15.733Z,15.60
2022-08-05T06:16:30.903Z,15.60
2022-08-05T06:19:09.100Z,15.70
2022-08-05T06:21:58.459Z,15.70
2022-08-05T06:24:48.253Z,15.80
2022-08-05T06:28:11.341Z,15.80
2022-08-05T06:30:42.136Z,15.90
2022-08-05T06:34:02.964Z,15.90
2022-08-05T06:36:37.391Z,15.90
2022-08-05T06:39:44.258Z,15.90
2022-08-05T06:42:32.988Z,16.00
2022-08-05T06:45:21.019Z,16.00
2022-08-05T06:48:13.803Z,16.00
2022-08-05T06:51:22.748Z,16.00
2022-08-05T06:54:18.123Z,16.00
2022-08-05T06:57:14.069Z,16.00
2022-08-05T07:00:12.617Z,16.10
2022-08-05T07:02:59.340Z,16.10
2022-08-05T07:05:46.216Z,16.10
2022-08-05T07:08:32.915Z,16.10
2022-08-05T07:11:22.144Z,16.10
2022-08-05T07:14:32.195Z,16.20
2022-08-05T07:18:07.285Z,16.20
2022-08-05T07:20:33.371Z,16.30
2022-08-05T07:23:26.300Z,16.30
2022-08-05T07:26:20.931Z,16.30
2022-08-05T07:29:09.224Z,16.30
2022-08-05T07:31:55.831Z,16.40
2022-08-05T07:34:42.395Z,16.40
2022-08-05T07:37:29.126Z,16.50
2022-08-05T07:40:26.786Z,16.60
2022-08-05T07:43:20.869Z,16.60
2022-08-05T07:46:07.274Z,16.70
2022-08-05T07:49:10.912Z,16.70
2022-08-05T07:51:57.161Z,16.70
2022-08-05T07:54:49.107Z,16.80
2022-08-05T07:57:55.161Z,16.80
2022-08-05T08:00:42.496Z,16.90
2022-08-05T08:03:44.355Z,16.90
2022-08-05T08:06:32.641Z,17.00
2022-08-05T08:09:19.779Z,17.10
2022-08-05T08:12:15.938Z,17.10
2022-08-05T08:15:15.804Z,17.10
2022-08-05T08:18:04.257Z,17.20
2022-08-05T08:21:02.962Z,17.20
2022-08-05T08:24:01.846Z,17.30
2022-08-05T08:26:50.838Z,17.40
2022-08-05T08:30:05.601Z,17.40
2022-08-05T08:32:44.622Z,17.40
2022-08-05T08:35:34.881Z,17.50
2022-08-05T08:38:36.129Z,17.60
2022-08-05T08:41:52.377Z,17.60
2022-08-05T08:45:19.417Z,17.60
2022-08-05T08:48:07.588Z,17.60
2022-08-05T08:51:03.470Z,17.60
2022-08-05T08:53:54.144Z,17.60
2022-08-05T08:56:47.893Z,17.60
2022-08-05T08:59:36.234Z,17.70
2022-08-05T09:02:26.668Z,17.70
2022-08-05T09:05:16.600Z,17.70
2022-08-05T09:08:04.819Z,17.80
2022-08-05T09:10:52.067Z,17.80
2022-08-05T09:14:09.663Z,17.90
2022-08-05T09:16:48.756Z,17.90
2022-08-05T09:19:36.842Z,18.00
2022-08-05T09:23:19.685Z,18.00
2022-08-05T09:26:10.314Z,18.10
2022-08-05T09:29:06.976Z,18.30
2022-08-05T09:32:42.047Z,18.30
2022-08-05T09:35:20.168Z,18.40
2022-08-05T09:38:18.294Z,18.50
2022-08-05T09:41:07.367Z,18.50
2022-08-05T09:43:54.374Z,18.60
2022-08-05T09:46:51.594Z,18.60
2022-08-05T09:50:02.466Z,18.70
2022-08-05T09:52:57.745Z,18.70
2022-08-05T09:55:57.697Z,18.70
2022-08-05T09:59:04.981Z,18.80
2022-08-05T10:01:58.393Z,18.80
2022-08-05T10:04:53.825Z,18.80
2022-08-05T10:08:11.007Z,18.90
2022-08-05T10:10:55.564Z,18.90
2022-08-05T10:13:47.199Z,19.00
2022-08-05T10:16:41.852Z,19.10
2022-08-05T10:20:04.020Z,19.10
2022-08-05T10:22:48.687Z,19.20
2022-08-05T10:25:37.160Z,19.30
2022-08-05T10:28:30.564Z,19.30
2022-08-05T10:32:47.845Z,19.40
2022-08-05T10:34:30.073Z,19.40
2022-08-05T10:37:18.049Z,19.40
2022-08-05T10:40:17.888Z,19.50
2022-08-05T10:43:35.905Z,19.60
2022-08-05T10:46:23.857Z,19.60
2022-08-05T10:49:16.493Z,19.70
2022-08-05T10:52:05.490Z,19.80
2022-08-05T10:55:06.229Z,19.80
2022-08-05T10:58:11.864Z,19.80
2022-08-05T11:01:08.486Z,19.90
2022-08-05T11:04:17.365Z,19.90
2022-08-05T11:07:08.907Z,19.80
2022-08-05T11:10:09.659Z,19.80
2022-08-05T11:12:57.884Z,19.90
2022-08-05T11:16:00.920Z,19.90
2022-08-05T11:18:48.229Z,20.00
2022-08-05T11:21:48.665Z,20.10
2022-08-05T11:24:35.490Z,20.20
2022-08-05T11:27:45.807Z,20.10
2022-08-05T11:31:06.613Z,20.10
2022-08-05T11:33:56.576Z,20.10
2022-08-05T11:36:53.010Z,20.30
2022-08-05T11:40:00.858Z,20.40
2022-08-05T11:42:50.162Z,20.40
2022-08-05T11:46:14.899Z,20.50
2022-08-05T11:48:57.653Z,20.60
2022-08-05T11:51:49.470Z,20.80
2022-08-05T11:54:38.229Z,20.90
2022-08-05T11:58:08.058Z,21.10
2022-08-05T12:00:38.505Z,21.30
2022-08-05T12:03:31.525Z,21.50
2022-08-05T12:06:23.813Z,21.50
2022-08-05T12:09:20.133Z,21.60
2022-08-05T12:12:08.226Z,21.60
2022-08-05T12:14:56.604Z,21.60
2022-08-05T12:18:02.791Z,21.60
2022-08-05T12:20:51.766Z,21.60
2022-08-05T12:23:51.334Z,21.70
2022-08-05T12:26:47.092Z,21.70
2022-08-05T12:29:37.949Z,21.80
2022-08-05T12:32:25.508Z,22.00
2022-08-05T12:35:16.850Z,22.10
2022-08-05T12:38:08.067Z,22.40
2022-08-05T12:40:57.538Z,22.60
2022-08-05T12:43:56.442Z,22.70
2022-08-05T12:46:51.395Z,22.60
2022-08-05T12:50:03.869Z,22.50
2022-08-05T12:52:59.995Z,22.40
2022-08-05T12:55:46.664Z,22.30
2022-08-05T12:58:51.271Z,22.30
2022-08-05T13:01:59.858Z,22.30
2022-08-05T13:04:52.568Z,22.20
2022-08-05T13:07:59.703Z,22.20
2022-08-05T13:10:50.673Z,22.20
2022-08-05T13:14:06.133Z,22.20
2022-08-05T13:16:51.790Z,22.20
2022-08-05T13:19:51.857Z,22.30
2022-08-05T13:22:42.112Z,22.30
2022-08-05T13:25:52.094Z,22.10
2022-08-05T13:28:40.879Z,22.00
2022-08-05T13:31:34.103Z,22.10
2022-08-05T13:34:36.704Z,22.20
2022-08-05T13:37:34.452Z,22.50
2022-08-05T13:40:35.655Z,22.60
2022-08-05T13:43:45.098Z,22.70
2022-08-05T13:46:50.618Z,22.60
2022-08-05T13:49:45.353Z,22.60
2022-08-05T13:52:36.277Z,22.40
2022-08-05T13:55:41.605Z,22.20
2022-08-05T13:58:30.507Z,22.10
2022-08-05T14:01:17.497Z,22.10
2022-08-05T14:04:26.422Z,22.30
2022-08-05T14:07:56.329Z,22.60
2022-08-05T14:10:28.070Z,22.80
2022-08-05T14:13:16.788Z,22.90
2022-08-05T14:16:05.185Z,22.80
2022-08-05T14:18:52.914Z,22.80
2022-08-05T14:22:08.831Z,22.80
2022-08-05T14:24:47.425Z,22.90
2022-08-05T14:27:33.697Z,23.00
2022-08-05T14:30:21.690Z,22.90
2022-08-05T14:33:10.711Z,22.80
2022-08-05T14:36:03.200Z,22.80
2022-08-05T14:38:52.649Z,22.70
2022-08-05T14:41:52.221Z,22.60
2022-08-05T14:44:46.431Z,22.80
2022-08-05T14:48:05.175Z,23.10
2022-08-05T14:50:41.722Z,23.50
2022-08-05T14:53:29.867Z,23.70
2022-08-05T14:56:16.518Z,23.70
2022-08-05T14:59:12.770Z,23.60
2022-08-05T15:02:00.009Z,23.60
2022-08-05T15:04:49.959Z,23.40
2022-08-05T15:08:10.705Z,23.30
2022-08-05T15:10:43.412Z,23.10
2022-08-05T15:13:46.617Z,23.10
2022-08-05T15:16:36.490Z,23.10
2022-08-05T15:19:24.114Z,23.10
2022-08-05T15:22:10.882Z,23.20
2022-08-05T15:24:59.038Z,23.10
2022-08-05T15:27:52.112Z,23.00
2022-08-05T15:30:38.696Z,22.80
2022-08-05T15:34:05.540Z,23.10
2022-08-05T15:36:32.413Z,24.20
2022-08-05T15:40:58.548Z,26.00
2022-08-05T15:42:54.306Z,27.70
2022-08-05T15:45:38.285Z,29.60
2022-08-05T15:48:24.639Z,30.70
2022-08-05T15:51:10.618Z,31.40
2022-08-05T15:53:57.336Z,32.30
2022-08-05T15:56:45.741Z,33.00
2022-08-05T15:59:31.565Z,33.80
2022-08-05T16:02:19.458Z,34.30
2022-08-05T16:05:11.345Z,33.70
2022-08-05T16:07:57.824Z,32.60
2022-08-05T16:10:44.210Z,31.30
2022-08-05T16:13:34.952Z,30.00
2022-08-05T16:16:25.528Z,28.70
2022-08-05T16:19:12.032Z,27.80
2022-08-05T16:22:06.803Z,27.40
2022-08-05T16:24:57.791Z,27.20
2022-08-05T16:28:00.195Z,26.80
2022-08-05T16:30:47.140Z,26.20
2022-08-05T16:33:41.193Z,25.50
2022-08-05T16:36:28.128Z,25.00
2022-08-05T16:39:14.692Z,24.60
2022-08-05T16:42:27.626Z,25.20
2022-08-05T16:46:06.137Z,26.30
2022-08-05T16:48:25.109Z,26.90
2022-08-05T16:51:12.340Z,26.80
2022-08-05T16:54:05.090Z,26.50
2022-08-05T16:56:57.520Z,27.10
2022-08-05T17:00:01.739Z,28.30
2022-08-05T17:02:51.343Z,29.40
2022-08-05T17:05:37.798Z,30.20
2022-08-05T17:08:36.348Z,31.30
2022-08-05T17:11:30.724Z,32.40
2022-08-05T17:14:37.649Z,33.50
2022-08-05T17:17:26.534Z,34.50
2022-08-05T17:20:28.817Z,34.60
2022-08-05T17:24:04.310Z,34.40
2022-08-05T17:26:21.184Z,34.80
2022-08-05T17:29:10.172Z,35.50
2022-08-05T17:31:59.176Z,36.20
2022-08-05T17:34:48.121Z,36.80
2022-08-05T17:37:40.040Z,37.40
2022-08-05T17:40:27.580Z,37.80
2022-08-05T17:43:17.966Z,38.10
2022-08-05T17:46:24.205Z,38.30
2022-08-05T17:49:10.113Z,38.10
2022-08-05T17:51:56.444Z,37.50
2022-08-05T17:54:42.722Z,36.20
2022-08-05T17:57:28.917Z,34.70
2022-08-05T18:00:18.518Z,33.00
2022-08-05T18:03:04.940Z,31.40
2022-08-05T18:05:54.454Z,29.90
2022-08-05T18:08:44.854Z,28.60
2022-08-05T18:11:33.884Z,27.50
2022-08-05T18:14:20.862Z,26.60
2022-08-05T18:17:07.097Z,25.80
2022-08-05T18:20:16.132Z,25.30
2022-08-05T18:23:09.509Z,24.60
2022-08-05T18:25:59.473Z,24.10
2022-08-05T18:28:46.503Z,23.60
2022-08-05T18:31:35.310Z,23.20
2022-08-05T18:34:22.072Z,23.00
2022-08-05T18:37:12.275Z,22.70
2022-08-05T18:41:50.162Z,22.60
2022-08-05T18:43:05.454Z,22.40
2022-08-05T18:45:55.334Z,22.20
2022-08-05T18:48:42.560Z,22.10
2022-08-05T18:52:05.107Z,22.00
2022-08-05T18:54:54.538Z,21.80
2022-08-05T18:57:50.046Z,21.70
2022-08-05T19:00:40.193Z,21.70
2022-08-05T19:03:53.482Z,21.60
2022-08-05T19:06:44.723Z,21.60
2022-08-05T19:09:40.091Z,21.60
2022-08-05T19:12:26.368Z,21.50
2022-08-05T19:15:56.694Z,21.50
2022-08-05T19:18:22.531Z,21.50
2022-08-05T19:21:08.761Z,21.50
2022-08-05T19:24:06.252Z,21.50
2022-08-05T19:26:57.131Z,21.40
2022-08-05T19:32:30.388Z,21.20
2022-08-05T19:35:16.481Z,21.10
2022-08-05T19:38:04.578Z,21.00
2022-08-05T19:40:54.078Z,20.90
2022-08-05T19:44:05.402Z,20.80
2022-08-05T19:46:50.938Z,20.80
2022-08-05T19:49:37.466Z,20.70
2022-08-05T19:52:30.611Z,20.60
2022-08-05T19:56:14.451Z,20.60
2022-08-05T19:58:28.404Z,20.50
2022-08-05T20:01:16.195Z,20.50
2022-08-05T20:04:14.790Z,20.50
2022-08-05T20:07:02.065Z,20.40
2022-08-05T20:09:53.958Z,20.40
2022-08-05T20:12:47.866Z,20.40
2022-08-05T20:15:52.465Z,20.30
2022-08-05T20:18:44.966Z,20.30
2022-08-05T20:21:31.865Z,20.30
2022-08-05T20:24:19.427Z,20.20
2022-08-05T20:27:11.372Z,20.20
2022-08-05T20:29:59.045Z,20.20
2022-08-05T20:32:45.608Z,20.10
2022-08-05T20:35:31.864Z,20.10
2022-08-05T20:38:28.248Z,20.10
2022-08-05T20:41:23.767Z,20.00
2022-08-05T20:44:18.507Z,20.00
2022-08-05T20:47:14.927Z,19.90
2022-08-05T20:50:02.436Z,19.80
2022-08-05T20:52:52.532Z,19.70
2022-08-05T20:56:07.484Z,19.70
2022-08-05T20:58:44.466Z,19.60
2022-08-05T21:01:38.299Z,19.50
2022-08-05T21:04:26.878Z,19.50
2022-08-05T21:07:14.314Z,19.40
2022-08-05T21:10:00.936Z,19.30
2022-08-05T21:13:09.042Z,19.20
2022-08-05T21:15:57.938Z,19.10
2022-08-05T21:18:45.326Z,19.00
2022-08-05T21:21:39.095Z,18.90
2022-08-05T21:24:30.062Z,18.90
2022-08-05T21:27:16.704Z,18.80
2022-08-05T21:30:03.901Z,18.70
2022-08-05T21:32:49.861Z,18.70
2022-08-05T21:35:55.930Z,18.60
2022-08-05T21:38:42.773Z,18.60
2022-08-05T21:41:34.283Z,18.50
2022-08-05T21:44:27.083Z,18.40
2022-08-05T21:47:17.644Z,18.40
2022-08-05T21:50:22.182Z,18.30
2022-08-05T21:53:17.394Z,18.20
2022-08-05T21:56:16.532Z,18.20
2022-08-05T21:59:08.030Z,18.20
2022-08-05T22:02:09.337Z,18.10
2022-08-05T22:04:58.353Z,18.10
2022-08-05T22:07:58.436Z,18.10
2022-08-05T22:10:45.881Z,18.10
2022-08-05T22:14:33.199Z,18.10
2022-08-05T22:16:51.724Z,18.10
2022-08-05T22:20:02.938Z,18.10
2022-08-05T22:23:16.749Z,18.10
2022-08-05T22:26:22.361Z,18.00
2022-08-05T22:29:10.585Z,18.00
2022-08-05T22:32:02.771Z,17.90
2022-08-05T22:34:50.098Z,17.90
2022-08-05T22:37:58.683Z,17.80
2022-08-05T22:40:49.399Z,17.80
2022-08-05T22:43:38.200Z,17.70
2022-08-05T22:46:25.926Z,17.70
2022-08-05T22:50:17.688Z,17.70
2022-08-05T22:52:30.418Z,17.60
2022-08-05T22:55:21.745Z,17.60
2022-08-05T22:58:11.680Z,17.60
2022-08-05T23:01:03.666Z,17.50
2022-08-05T23:03:57.940Z,17.50
2022-08-05T23:06:48.558Z,17.40
2022-08-05T23:09:58.428Z,17.40
2022-08-05T23:12:40.920Z,17.30
2022-08-05T23:15:35.364Z,17.30
2022-08-05T23:18:22.864Z,17.30
2022-08-05T23:21:10.276Z,17.20
2022-08-05T23:23:56.549Z,17.20
2022-08-05T23:26:42.454Z,17.10
2022-08-05T23:29:34.418Z,17.10
2022-08-05T23:32:22.691Z,17.10
2022-08-05T23:35:09.872Z,17.00
2022-08-05T23:37:56.033Z,17.00
2022-08-05T23:40:42.239Z,17.00
2022-08-05T23:43:37.312Z,17.00
2022-08-05T23:46:41.446Z,16.90
2022-08-05T23:49:35.672Z,16.90
2022-08-05T23:52:32.553Z,16.80
2022-08-05T23:55:30.885Z,16.80
2022-08-05T23:58:31.448Z,16.80
